sensor_id;sensor_type;location;lat;lon;timestamp;temperature;humidity
43049;DHT22;28673;44.412;11.918;2023-06-14T00:01:57;19.30;99.90
43049;DHT22;28673;44.412;11.918;2023-06-14T00:04:23;19.30;99.90
43049;DHT22;28673;44.412;11.918;2023-06-14T00:06:50;19.30;99.90
43049;DHT22;28673;44.412;11.918;2023-06-14T00:09:19;19.30;99.90
43049;DHT22;28673;44.412;11.918;2023-06-14T00:11:45;19.30;99.90
43049;DHT22;28673;44.412;11.918;2023-06-14T00:14:11;19.30;99.90
43049;DHT22;28673;44.412;11.918;2023-06-14T00:16:37;19.30;99.90
43049;DHT22;28673;44.412;11.918;2023-06-14T00:19:04;19.30;99.90
43049;DHT22;28673;44.412;11.918;2023-06-14T00:21:31;19.40;99.90
43049;DHT22;28673;44.412;11.918;2023-06-14T00:23:58;19.40;99.90
43049;DHT22;28673;44.412;11.918;2023-06-14T00:26:24;19.40;99.90
43049;DHT22;28673;44.412;11.918;2023-06-14T00:28:52;19.40;99.90
43049;DHT22;28673;44.412;11.918;2023-06-14T00:31:18;19.40;99.90
43049;DHT22;28673;44.412;11.918;2023-06-14T00:33:44;19.40;99.90
43049;DHT22;28673;44.412;11.918;2023-06-14T00:36:11;19.40;99.90
43049;DHT22;28673;44.412;11.918;2023-06-14T00:38:37;19.50;99.90
43049;DHT22;28673;44.412;11.918;2023-06-14T00:41:03;19.50;99.90
43049;DHT22;28673;44.412;11.918;2023-06-14T00:43:29;19.50;99.90
43049;DHT22;28673;44.412;11.918;2023-06-14T00:45:55;19.50;99.90
43049;DHT22;28673;44.412;11.918;2023-06-14T00:48:21;19.50;99.90
43049;DHT22;28673;44.412;11.918;2023-06-14T00:50:49;19.50;99.90
43049;DHT22;28673;44.412;11.918;2023-06-14T00:53:16;19.50;99.90
43049;DHT22;28673;44.412;11.918;2023-06-14T00:55:50;19.50;99.90
43049;DHT22;28673;44.412;11.918;2023-06-14T00:58:17;19.50;99.90
43049;DHT22;28673;44.412;11.918;2023-06-14T01:00:43;19.50;99.90
43049;DHT22;28673;44.412;11.918;2023-06-14T01:03:09;19.50;99.90
43049;DHT22;28673;44.412;11.918;2023-06-14T01:05:38;19.50;99.90
43049;DHT22;28673;44.412;11.918;2023-06-14T01:08:21;19.50;99.90
43049;DHT22;28673;44.412;11.918;2023-06-14T01:13:36;19.50;99.90
43049;DHT22;28673;44.412;11.918;2023-06-14T01:16:03;19.50;99.90
43049;DHT22;28673;44.412;11.918;2023-06-14T01:18:30;19.50;99.90
43049;DHT22;28673;44.412;11.918;2023-06-14T01:20:57;19.50;99.90
43049;DHT22;28673;44.412;11.918;2023-06-14T01:23:24;19.50;99.90
43049;DHT22;28673;44.412;11.918;2023-06-14T01:25:51;19.50;99.90
43049;DHT22;28673;44.412;11.918;2023-06-14T01:28:21;19.50;99.90
43049;DHT22;28673;44.412;11.918;2023-06-14T01:30:50;19.40;99.90
43049;DHT22;28673;44.412;11.918;2023-06-14T01:33:21;19.40;99.90
43049;DHT22;28673;44.412;11.918;2023-06-14T01:35:49;19.40;99.90
43049;DHT22;28673;44.412;11.918;2023-06-14T01:38:17;19.40;99.90
43049;DHT22;28673;44.412;11.918;2023-06-14T01:40:45;19.40;99.90
43049;DHT22;28673;44.412;11.918;2023-06-14T01:43:15;19.30;99.90
43049;DHT22;28673;44.412;11.918;2023-06-14T01:45:42;19.30;99.90
43049;DHT22;28673;44.412;11.918;2023-06-14T01:48:10;19.30;99.90
43049;DHT22;28673;44.412;11.918;2023-06-14T01:50:36;19.30;99.90
43049;DHT22;28673;44.412;11.918;2023-06-14T01:53:06;19.30;99.90
43049;DHT22;28673;44.412;11.918;2023-06-14T01:55:36;19.30;99.90
43049;DHT22;28673;44.412;11.918;2023-06-14T01:58:06;19.30;99.90
43049;DHT22;28673;44.412;11.918;2023-06-14T02:00:32;19.30;99.90
43049;DHT22;28673;44.412;11.918;2023-06-14T02:02:58;19.30;99.90
43049;DHT22;28673;44.412;11.918;2023-06-14T02:05:25;19.20;99.90
43049;DHT22;28673;44.412;11.918;2023-06-14T02:07:52;19.20;99.90
43049;DHT22;28673;44.412;11.918;2023-06-14T02:10:22;19.20;99.90
43049;DHT22;28673;44.412;11.918;2023-06-14T02:12:48;19.20;99.90
43049;DHT22;28673;44.412;11.918;2023-06-14T02:15:14;19.20;99.90
43049;DHT22;28673;44.412;11.918;2023-06-14T02:17:44;19.20;99.90
43049;DHT22;28673;44.412;11.918;2023-06-14T02:20:10;19.20;99.90
43049;DHT22;28673;44.412;11.918;2023-06-14T02:22:36;19.10;99.90
43049;DHT22;28673;44.412;11.918;2023-06-14T02:25:02;19.10;99.90
43049;DHT22;28673;44.412;11.918;2023-06-14T02:27:28;19.10;99.90
43049;DHT22;28673;44.412;11.918;2023-06-14T02:29:54;19.10;99.90
43049;DHT22;28673;44.412;11.918;2023-06-14T02:32:20;19.00;99.90
43049;DHT22;28673;44.412;11.918;2023-06-14T02:34:46;19.00;99.90
43049;DHT22;28673;44.412;11.918;2023-06-14T02:37:16;19.00;99.90
43049;DHT22;28673;44.412;11.918;2023-06-14T02:39:42;19.00;99.90
43049;DHT22;28673;44.412;11.918;2023-06-14T02:42:08;19.00;99.90
43049;DHT22;28673;44.412;11.918;2023-06-14T02:44:34;19.00;99.90
43049;DHT22;28673;44.412;11.918;2023-06-14T02:47:00;19.00;99.90
43049;DHT22;28673;44.412;11.918;2023-06-14T02:49:26;19.00;99.90
43049;DHT22;28673;44.412;11.918;2023-06-14T02:51:54;19.00;99.90
43049;DHT22;28673;44.412;11.918;2023-06-14T02:54:20;18.90;99.90
43049;DHT22;28673;44.412;11.918;2023-06-14T02:56:46;18.90;99.90
43049;DHT22;28673;44.412;11.918;2023-06-14T02:59:12;18.90;99.90
43049;DHT22;28673;44.412;11.918;2023-06-14T03:01:40;19.00;99.90
43049;DHT22;28673;44.412;11.918;2023-06-14T03:04:09;18.90;99.90
43049;DHT22;28673;44.412;11.918;2023-06-14T03:06:38;19.00;99.90
43049;DHT22;28673;44.412;11.918;2023-06-14T03:09:05;19.00;99.90
43049;DHT22;28673;44.412;11.918;2023-06-14T03:11:33;19.00;99.90
43049;DHT22;28673;44.412;11.918;2023-06-14T03:14:00;19.00;99.90
43049;DHT22;28673;44.412;11.918;2023-06-14T03:16:26;19.00;99.90
43049;DHT22;28673;44.412;11.918;2023-06-14T03:18:56;19.00;99.90
43049;DHT22;28673;44.412;11.918;2023-06-14T03:21:25;19.00;99.90
43049;DHT22;28673;44.412;11.918;2023-06-14T03:23:52;19.00;99.90
43049;DHT22;28673;44.412;11.918;2023-06-14T03:26:19;19.00;99.90
43049;DHT22;28673;44.412;11.918;2023-06-14T03:28:48;19.00;99.90
43049;DHT22;28673;44.412;11.918;2023-06-14T03:31:17;19.00;99.90
43049;DHT22;28673;44.412;11.918;2023-06-14T03:33:45;19.00;99.90
43049;DHT22;28673;44.412;11.918;2023-06-14T03:36:12;19.10;99.90
43049;DHT22;28673;44.412;11.918;2023-06-14T03:38:39;19.00;99.90
43049;DHT22;28673;44.412;11.918;2023-06-14T03:41:05;19.10;99.90
43049;DHT22;28673;44.412;11.918;2023-06-14T03:43:32;19.10;99.90
43049;DHT22;28673;44.412;11.918;2023-06-14T03:45:59;19.10;99.90
43049;DHT22;28673;44.412;11.918;2023-06-14T03:48:26;19.10;99.90
43049;DHT22;28673;44.412;11.918;2023-06-14T03:50:52;19.10;99.90
43049;DHT22;28673;44.412;11.918;2023-06-14T03:53:20;19.10;99.90
43049;DHT22;28673;44.412;11.918;2023-06-14T03:55:50;19.10;99.90
43049;DHT22;28673;44.412;11.918;2023-06-14T03:58:19;19.10;99.90
43049;DHT22;28673;44.412;11.918;2023-06-14T04:00:46;19.10;99.90
43049;DHT22;28673;44.412;11.918;2023-06-14T04:03:12;19.20;99.90
43049;DHT22;28673;44.412;11.918;2023-06-14T04:05:39;19.10;99.90
43049;DHT22;28673;44.412;11.918;2023-06-14T04:08:09;19.20;99.90
43049;DHT22;28673;44.412;11.918;2023-06-14T04:10:36;19.20;99.90
43049;DHT22;28673;44.412;11.918;2023-06-14T04:13:02;19.20;99.90
43049;DHT22;28673;44.412;11.918;2023-06-14T04:15:29;19.30;99.90
43049;DHT22;28673;44.412;11.918;2023-06-14T04:17:56;19.30;99.90
43049;DHT22;28673;44.412;11.918;2023-06-14T04:20:23;19.30;99.90
43049;DHT22;28673;44.412;11.918;2023-06-14T04:22:52;19.30;99.90
43049;DHT22;28673;44.412;11.918;2023-06-14T04:25:19;19.40;99.90
43049;DHT22;28673;44.412;11.918;2023-06-14T04:27:46;19.40;99.90
43049;DHT22;28673;44.412;11.918;2023-06-14T04:30:13;19.50;99.90
43049;DHT22;28673;44.412;11.918;2023-06-14T04:32:47;19.50;99.90
43049;DHT22;28673;44.412;11.918;2023-06-14T04:35:15;19.50;99.90
43049;DHT22;28673;44.412;11.918;2023-06-14T04:37:43;19.50;99.90
43049;DHT22;28673;44.412;11.918;2023-06-14T04:40:11;19.50;99.90
43049;DHT22;28673;44.412;11.918;2023-06-14T04:42:38;19.60;99.90
43049;DHT22;28673;44.412;11.918;2023-06-14T04:45:07;19.60;99.90
43049;DHT22;28673;44.412;11.918;2023-06-14T04:47:35;19.70;99.90
43049;DHT22;28673;44.412;11.918;2023-06-14T04:50:05;19.80;99.90
43049;DHT22;28673;44.412;11.918;2023-06-14T04:52:31;19.80;99.90
43049;DHT22;28673;44.412;11.918;2023-06-14T04:54:59;19.90;99.90
43049;DHT22;28673;44.412;11.918;2023-06-14T04:57:26;19.90;99.90
43049;DHT22;28673;44.412;11.918;2023-06-14T04:59:55;20.00;99.90
43049;DHT22;28673;44.412;11.918;2023-06-14T05:02:25;20.00;99.90
43049;DHT22;28673;44.412;11.918;2023-06-14T05:04:53;20.10;99.90
43049;DHT22;28673;44.412;11.918;2023-06-14T05:07:19;20.20;99.90
43049;DHT22;28673;44.412;11.918;2023-06-14T05:09:47;20.30;99.90
43049;DHT22;28673;44.412;11.918;2023-06-14T05:12:13;20.40;99.90
43049;DHT22;28673;44.412;11.918;2023-06-14T05:14:43;20.40;99.90
43049;DHT22;28673;44.412;11.918;2023-06-14T05:17:10;20.50;99.90
43049;DHT22;28673;44.412;11.918;2023-06-14T05:19:36;20.60;99.90
43049;DHT22;28673;44.412;11.918;2023-06-14T05:22:02;20.70;99.90
43049;DHT22;28673;44.412;11.918;2023-06-14T05:24:28;20.70;99.90
43049;DHT22;28673;44.412;11.918;2023-06-14T05:26:56;20.70;99.90
43049;DHT22;28673;44.412;11.918;2023-06-14T05:29:22;20.80;99.90
43049;DHT22;28673;44.412;11.918;2023-06-14T05:31:48;20.90;99.90
43049;DHT22;28673;44.412;11.918;2023-06-14T05:34:14;21.00;99.90
43049;DHT22;28673;44.412;11.918;2023-06-14T05:36:40;21.00;99.90
43049;DHT22;28673;44.412;11.918;2023-06-14T05:39:06;21.10;99.90
43049;DHT22;28673;44.412;11.918;2023-06-14T05:41:32;21.20;99.90
43049;DHT22;28673;44.412;11.918;2023-06-14T05:43:58;21.20;99.90
43049;DHT22;28673;44.412;11.918;2023-06-14T05:46:25;21.20;99.90
43049;DHT22;28673;44.412;11.918;2023-06-14T05:48:52;21.30;99.90
43049;DHT22;28673;44.412;11.918;2023-06-14T05:51:18;21.40;99.90
43049;DHT22;28673;44.412;11.918;2023-06-14T05:53:45;21.50;99.90
43049;DHT22;28673;44.412;11.918;2023-06-14T05:56:12;21.60;99.90
43049;DHT22;28673;44.412;11.918;2023-06-14T05:58:38;21.60;99.90
43049;DHT22;28673;44.412;11.918;2023-06-14T06:01:04;21.70;99.90
43049;DHT22;28673;44.412;11.918;2023-06-14T06:03:30;21.70;99.90
43049;DHT22;28673;44.412;11.918;2023-06-14T06:05:56;21.80;99.90
43049;DHT22;28673;44.412;11.918;2023-06-14T06:08:22;21.80;99.90
43049;DHT22;28673;44.412;11.918;2023-06-14T06:10:47;21.90;99.90
43049;DHT22;28673;44.412;11.918;2023-06-14T06:13:13;22.00;99.90
43049;DHT22;28673;44.412;11.918;2023-06-14T06:15:39;22.00;99.90
43049;DHT22;28673;44.412;11.918;2023-06-14T06:18:05;22.10;99.90
43049;DHT22;28673;44.412;11.918;2023-06-14T06:20:32;22.20;99.90
43049;DHT22;28673;44.412;11.918;2023-06-14T06:22:58;22.30;99.90
43049;DHT22;28673;44.412;11.918;2023-06-14T06:25:25;22.40;99.90
43049;DHT22;28673;44.412;11.918;2023-06-14T06:27:53;22.50;99.90
43049;DHT22;28673;44.412;11.918;2023-06-14T06:30:19;22.70;99.90
43049;DHT22;28673;44.412;11.918;2023-06-14T06:32:46;22.80;99.90
43049;DHT22;28673;44.412;11.918;2023-06-14T06:35:12;22.90;99.90
43049;DHT22;28673;44.412;11.918;2023-06-14T06:37:41;23.20;99.90
43049;DHT22;28673;44.412;11.918;2023-06-14T06:40:07;23.40;99.90
43049;DHT22;28673;44.412;11.918;2023-06-14T06:42:34;23.60;99.90
43049;DHT22;28673;44.412;11.918;2023-06-14T06:45:04;23.70;99.90
43049;DHT22;28673;44.412;11.918;2023-06-14T06:47:30;23.80;99.90
43049;DHT22;28673;44.412;11.918;2023-06-14T06:49:56;24.00;99.90
43049;DHT22;28673;44.412;11.918;2023-06-14T06:52:22;24.00;99.90
43049;DHT22;28673;44.412;11.918;2023-06-14T06:54:48;24.10;99.90
43049;DHT22;28673;44.412;11.918;2023-06-14T06:57:14;24.20;99.90
43049;DHT22;28673;44.412;11.918;2023-06-14T06:59:40;24.20;99.90
43049;DHT22;28673;44.412;11.918;2023-06-14T07:02:06;24.30;99.90
43049;DHT22;28673;44.412;11.918;2023-06-14T07:04:32;24.30;99.90
43049;DHT22;28673;44.412;11.918;2023-06-14T07:06:58;24.40;99.90
43049;DHT22;28673;44.412;11.918;2023-06-14T07:09:24;24.50;99.90
43049;DHT22;28673;44.412;11.918;2023-06-14T07:11:50;24.50;99.90
43049;DHT22;28673;44.412;11.918;2023-06-14T07:14:16;24.60;99.90
43049;DHT22;28673;44.412;11.918;2023-06-14T07:16:42;24.60;99.90
43049;DHT22;28673;44.412;11.918;2023-06-14T07:19:08;24.70;99.90
43049;DHT22;28673;44.412;11.918;2023-06-14T07:21:36;24.70;99.90
43049;DHT22;28673;44.412;11.918;2023-06-14T07:24:07;24.70;99.90
43049;DHT22;28673;44.412;11.918;2023-06-14T07:26:33;24.80;99.90
43049;DHT22;28673;44.412;11.918;2023-06-14T07:29:01;24.90;99.90
43049;DHT22;28673;44.412;11.918;2023-06-14T07:31:27;25.00;99.90
43049;DHT22;28673;44.412;11.918;2023-06-14T07:33:53;25.10;99.90
43049;DHT22;28673;44.412;11.918;2023-06-14T07:36:19;25.10;99.90
43049;DHT22;28673;44.412;11.918;2023-06-14T07:38:46;25.20;99.90
43049;DHT22;28673;44.412;11.918;2023-06-14T07:41:12;25.30;99.90
43049;DHT22;28673;44.412;11.918;2023-06-14T07:43:38;25.30;99.90
43049;DHT22;28673;44.412;11.918;2023-06-14T07:46:04;25.40;99.90
43049;DHT22;28673;44.412;11.918;2023-06-14T07:48:30;25.40;99.90
43049;DHT22;28673;44.412;11.918;2023-06-14T07:50:56;25.50;99.90
43049;DHT22;28673;44.412;11.918;2023-06-14T07:53:22;25.50;99.90
43049;DHT22;28673;44.412;11.918;2023-06-14T07:55:48;25.60;99.90
43049;DHT22;28673;44.412;11.918;2023-06-14T07:58:15;25.50;99.90
43049;DHT22;28673;44.412;11.918;2023-06-14T08:00:40;25.50;99.90
43049;DHT22;28673;44.412;11.918;2023-06-14T08:03:06;25.50;99.90
43049;DHT22;28673;44.412;11.918;2023-06-14T08:05:33;25.60;99.90
43049;DHT22;28673;44.412;11.918;2023-06-14T08:07:59;25.70;99.90
43049;DHT22;28673;44.412;11.918;2023-06-14T08:10:25;25.80;99.90
43049;DHT22;28673;44.412;11.918;2023-06-14T08:12:51;25.90;99.90
43049;DHT22;28673;44.412;11.918;2023-06-14T08:15:17;26.00;99.90
43049;DHT22;28673;44.412;11.918;2023-06-14T08:17:44;26.10;99.90
43049;DHT22;28673;44.412;11.918;2023-06-14T08:20:10;26.10;99.90
43049;DHT22;28673;44.412;11.918;2023-06-14T08:22:36;26.30;99.90
43049;DHT22;28673;44.412;11.918;2023-06-14T08:25:03;26.30;99.90
43049;DHT22;28673;44.412;11.918;2023-06-14T08:27:30;26.40;99.90
43049;DHT22;28673;44.412;11.918;2023-06-14T08:29:56;26.40;99.90
43049;DHT22;28673;44.412;11.918;2023-06-14T08:32:22;26.60;99.90
43049;DHT22;28673;44.412;11.918;2023-06-14T08:34:48;26.60;99.90
43049;DHT22;28673;44.412;11.918;2023-06-14T08:37:14;26.60;99.90
43049;DHT22;28673;44.412;11.918;2023-06-14T08:39:40;26.70;99.90
43049;DHT22;28673;44.412;11.918;2023-06-14T08:42:07;26.70;99.90
43049;DHT22;28673;44.412;11.918;2023-06-14T08:44:34;26.90;99.90
43049;DHT22;28673;44.412;11.918;2023-06-14T08:47:00;27.10;99.90
43049;DHT22;28673;44.412;11.918;2023-06-14T08:49:29;27.20;99.90
43049;DHT22;28673;44.412;11.918;2023-06-14T08:51:59;27.40;99.90
43049;DHT22;28673;44.412;11.918;2023-06-14T08:54:28;27.50;99.90
43049;DHT22;28673;44.412;11.918;2023-06-14T08:57:00;27.70;99.90
43049;DHT22;28673;44.412;11.918;2023-06-14T08:59:26;27.90;99.90
43049;DHT22;28673;44.412;11.918;2023-06-14T09:01:53;28.20;99.90
43049;DHT22;28673;44.412;11.918;2023-06-14T09:04:21;28.50;99.90
43049;DHT22;28673;44.412;11.918;2023-06-14T09:06:47;28.80;99.90
43049;DHT22;28673;44.412;11.918;2023-06-14T09:09:23;29.10;99.70
43049;DHT22;28673;44.412;11.918;2023-06-14T09:11:52;29.50;98.80
43049;DHT22;28673;44.412;11.918;2023-06-14T09:14:19;29.80;98.60
43049;DHT22;28673;44.412;11.918;2023-06-14T09:16:45;30.20;97.70
43049;DHT22;28673;44.412;11.918;2023-06-14T09:19:21;30.40;97.10
43049;DHT22;28673;44.412;11.918;2023-06-14T09:21:48;30.40;96.90
43049;DHT22;28673;44.412;11.918;2023-06-14T09:24:15;30.50;96.90
43049;DHT22;28673;44.412;11.918;2023-06-14T09:26:41;30.70;96.50
43049;DHT22;28673;44.412;11.918;2023-06-14T09:29:07;30.80;95.90
43049;DHT22;28673;44.412;11.918;2023-06-14T09:31:35;30.70;95.70
43049;DHT22;28673;44.412;11.918;2023-06-14T09:34:02;30.70;95.30
43049;DHT22;28673;44.412;11.918;2023-06-14T09:36:31;30.60;94.90
43049;DHT22;28673;44.412;11.918;2023-06-14T09:38:59;30.50;94.90
43049;DHT22;28673;44.412;11.918;2023-06-14T09:41:37;30.30;94.90
43049;DHT22;28673;44.412;11.918;2023-06-14T09:44:05;30.00;94.70
43049;DHT22;28673;44.412;11.918;2023-06-14T09:46:31;29.80;95.00
43049;DHT22;28673;44.412;11.918;2023-06-14T09:48:58;29.70;95.00
43049;DHT22;28673;44.412;11.918;2023-06-14T09:51:26;29.60;95.10
43049;DHT22;28673;44.412;11.918;2023-06-14T09:53:52;29.50;95.30
43049;DHT22;28673;44.412;11.918;2023-06-14T09:56:31;29.40;95.40
43049;DHT22;28673;44.412;11.918;2023-06-14T09:58:58;29.40;95.50
43049;DHT22;28673;44.412;11.918;2023-06-14T10:01:25;29.30;95.50
43049;DHT22;28673;44.412;11.918;2023-06-14T10:04:04;29.30;95.40
43049;DHT22;28673;44.412;11.918;2023-06-14T10:06:30;29.30;95.20
43049;DHT22;28673;44.412;11.918;2023-06-14T10:08:59;29.10;94.90
43049;DHT22;28673;44.412;11.918;2023-06-14T10:11:26;29.10;95.00
43049;DHT22;28673;44.412;11.918;2023-06-14T10:13:58;28.90;95.00
43049;DHT22;28673;44.412;11.918;2023-06-14T10:16:31;28.80;94.90
43049;DHT22;28673;44.412;11.918;2023-06-14T10:24:17;28.60;95.80
43049;DHT22;28673;44.412;11.918;2023-06-14T10:26:56;28.50;96.10
43049;DHT22;28673;44.412;11.918;2023-06-14T10:29:22;28.30;96.30
43049;DHT22;28673;44.412;11.918;2023-06-14T10:31:57;28.10;96.50
43049;DHT22;28673;44.412;11.918;2023-06-14T10:34:31;27.90;96.80
43049;DHT22;28673;44.412;11.918;2023-06-14T10:37:05;27.80;97.20
43049;DHT22;28673;44.412;11.918;2023-06-14T10:39:39;27.70;97.20
43049;DHT22;28673;44.412;11.918;2023-06-14T10:42:09;27.60;97.40
43049;DHT22;28673;44.412;11.918;2023-06-14T10:44:51;27.50;97.60
43049;DHT22;28673;44.412;11.918;2023-06-14T10:47:35;27.60;98.00
43049;DHT22;28673;44.412;11.918;2023-06-14T10:50:09;27.60;98.10
43049;DHT22;28673;44.412;11.918;2023-06-14T10:52:43;27.50;98.10
43049;DHT22;28673;44.412;11.918;2023-06-14T10:55:11;27.50;98.20
43049;DHT22;28673;44.412;11.918;2023-06-14T10:57:42;27.50;98.30
43049;DHT22;28673;44.412;11.918;2023-06-14T11:00:09;27.50;98.30
43049;DHT22;28673;44.412;11.918;2023-06-14T11:11:13;27.30;99.10
43049;DHT22;28673;44.412;11.918;2023-06-14T11:13:41;27.20;99.20
43049;DHT22;28673;44.412;11.918;2023-06-14T11:16:15;27.10;99.50
43049;DHT22;28673;44.412;11.918;2023-06-14T11:18:41;27.00;99.80
43049;DHT22;28673;44.412;11.918;2023-06-14T11:21:07;26.90;99.80
43049;DHT22;28673;44.412;11.918;2023-06-14T11:23:35;26.80;99.90
43049;DHT22;28673;44.412;11.918;2023-06-14T11:26:01;26.80;99.90
43049;DHT22;28673;44.412;11.918;2023-06-14T11:28:40;26.80;99.90
43049;DHT22;28673;44.412;11.918;2023-06-14T11:31:07;26.90;99.90
43049;DHT22;28673;44.412;11.918;2023-06-14T11:33:33;27.10;99.90
43049;DHT22;28673;44.412;11.918;2023-06-14T11:36:02;27.40;99.90
43049;DHT22;28673;44.412;11.918;2023-06-14T11:38:29;27.70;99.90
43049;DHT22;28673;44.412;11.918;2023-06-14T11:40:58;28.00;99.80
43049;DHT22;28673;44.412;11.918;2023-06-14T11:43:25;28.20;98.40
43049;DHT22;28673;44.412;11.918;2023-06-14T11:45:52;28.40;98.00
43049;DHT22;28673;44.412;11.918;2023-06-14T11:48:18;28.70;96.80
43049;DHT22;28673;44.412;11.918;2023-06-14T11:50:50;29.10;97.00
43049;DHT22;28673;44.412;11.918;2023-06-14T11:53:16;29.40;95.50
43049;DHT22;28673;44.412;11.918;2023-06-14T11:55:43;29.90;95.70
43049;DHT22;28673;44.412;11.918;2023-06-14T11:58:12;30.20;95.30
43049;DHT22;28673;44.412;11.918;2023-06-14T12:00:38;30.60;95.10
43049;DHT22;28673;44.412;11.918;2023-06-14T12:03:04;31.00;94.00
43049;DHT22;28673;44.412;11.918;2023-06-14T12:05:33;31.20;94.20
43049;DHT22;28673;44.412;11.918;2023-06-14T12:08:02;31.50;94.10
43049;DHT22;28673;44.412;11.918;2023-06-14T12:10:28;31.90;93.80
43049;DHT22;28673;44.412;11.918;2023-06-14T12:13:00;32.10;93.30
43049;DHT22;28673;44.412;11.918;2023-06-14T12:15:29;32.40;91.50
43049;DHT22;28673;44.412;11.918;2023-06-14T12:17:55;32.50;91.40
43049;DHT22;28673;44.412;11.918;2023-06-14T12:20:21;32.70;91.10
43049;DHT22;28673;44.412;11.918;2023-06-14T12:22:55;32.90;92.00
43049;DHT22;28673;44.412;11.918;2023-06-14T12:25:29;33.20;90.10
43049;DHT22;28673;44.412;11.918;2023-06-14T12:27:57;33.20;90.00
43049;DHT22;28673;44.412;11.918;2023-06-14T12:30:23;33.20;90.30
43049;DHT22;28673;44.412;11.918;2023-06-14T12:32:49;33.10;90.20
43049;DHT22;28673;44.412;11.918;2023-06-14T12:35:17;33.20;90.30
43049;DHT22;28673;44.412;11.918;2023-06-14T12:37:46;33.40;90.10
43049;DHT22;28673;44.412;11.918;2023-06-14T12:40:13;33.40;88.30
43049;DHT22;28673;44.412;11.918;2023-06-14T12:42:40;33.20;89.20
43049;DHT22;28673;44.412;11.918;2023-06-14T12:45:06;33.20;89.40
43049;DHT22;28673;44.412;11.918;2023-06-14T12:47:32;33.10;88.80
43049;DHT22;28673;44.412;11.918;2023-06-14T12:49:58;33.10;89.00
43049;DHT22;28673;44.412;11.918;2023-06-14T12:52:24;32.90;88.40
43049;DHT22;28673;44.412;11.918;2023-06-14T12:54:50;32.70;88.40
43049;DHT22;28673;44.412;11.918;2023-06-14T12:57:16;32.40;88.60
43049;DHT22;28673;44.412;11.918;2023-06-14T12:59:42;32.40;88.20
43049;DHT22;28673;44.412;11.918;2023-06-14T13:02:19;32.30;88.00
43049;DHT22;28673;44.412;11.918;2023-06-14T13:04:47;32.40;88.50
43049;DHT22;28673;44.412;11.918;2023-06-14T13:07:13;32.60;87.40
43049;DHT22;28673;44.412;11.918;2023-06-14T13:09:41;32.60;82.70
43049;DHT22;28673;44.412;11.918;2023-06-14T13:12:08;32.70;86.40
43049;DHT22;28673;44.412;11.918;2023-06-14T13:14:34;32.90;86.10
43049;DHT22;28673;44.412;11.918;2023-06-14T13:17:00;33.00;84.20
43049;DHT22;28673;44.412;11.918;2023-06-14T13:19:25;33.20;84.00
43049;DHT22;28673;44.412;11.918;2023-06-14T13:21:51;33.20;85.00
43049;DHT22;28673;44.412;11.918;2023-06-14T13:24:17;33.50;83.70
43049;DHT22;28673;44.412;11.918;2023-06-14T13:26:43;33.60;83.80
43049;DHT22;28673;44.412;11.918;2023-06-14T13:29:09;33.80;83.50
43049;DHT22;28673;44.412;11.918;2023-06-14T13:31:35;33.90;84.00
43049;DHT22;28673;44.412;11.918;2023-06-14T13:34:04;34.10;81.60
43049;DHT22;28673;44.412;11.918;2023-06-14T13:36:31;34.10;82.60
43049;DHT22;28673;44.412;11.918;2023-06-14T13:38:57;34.00;80.10
43049;DHT22;28673;44.412;11.918;2023-06-14T13:41:26;33.90;81.70
43049;DHT22;28673;44.412;11.918;2023-06-14T13:43:58;33.80;81.40
43049;DHT22;28673;44.412;11.918;2023-06-14T13:46:24;33.70;80.60
43049;DHT22;28673;44.412;11.918;2023-06-14T13:48:50;33.70;81.20
43049;DHT22;28673;44.412;11.918;2023-06-14T13:51:16;33.70;82.30
43049;DHT22;28673;44.412;11.918;2023-06-14T13:53:53;33.70;80.60
43049;DHT22;28673;44.412;11.918;2023-06-14T13:56:21;33.50;79.50
43049;DHT22;28673;44.412;11.918;2023-06-14T13:58:48;33.50;81.00
43049;DHT22;28673;44.412;11.918;2023-06-14T14:01:14;33.50;81.20
43049;DHT22;28673;44.412;11.918;2023-06-14T14:03:40;33.50;80.00
43049;DHT22;28673;44.412;11.918;2023-06-14T14:06:05;33.40;79.50
43049;DHT22;28673;44.412;11.918;2023-06-14T14:08:32;33.40;80.80
43049;DHT22;28673;44.412;11.918;2023-06-14T14:10:59;33.40;82.10
43049;DHT22;28673;44.412;11.918;2023-06-14T14:13:24;33.40;81.30
43049;DHT22;28673;44.412;11.918;2023-06-14T14:15:50;33.40;81.30
43049;DHT22;28673;44.412;11.918;2023-06-14T14:18:16;33.40;81.80
43049;DHT22;28673;44.412;11.918;2023-06-14T14:20:42;33.30;79.70
43049;DHT22;28673;44.412;11.918;2023-06-14T14:23:09;33.30;81.80
43049;DHT22;28673;44.412;11.918;2023-06-14T14:25:35;33.30;81.90
43049;DHT22;28673;44.412;11.918;2023-06-14T14:28:01;33.30;81.10
43049;DHT22;28673;44.412;11.918;2023-06-14T14:30:27;33.30;82.70
43049;DHT22;28673;44.412;11.918;2023-06-14T14:32:53;33.20;83.20
43049;DHT22;28673;44.412;11.918;2023-06-14T14:35:19;32.90;82.90
43049;DHT22;28673;44.412;11.918;2023-06-14T14:37:45;32.60;83.50
43049;DHT22;28673;44.412;11.918;2023-06-14T14:40:11;32.30;83.70
43049;DHT22;28673;44.412;11.918;2023-06-14T14:42:37;32.00;84.10
43049;DHT22;28673;44.412;11.918;2023-06-14T14:45:03;31.70;84.50
43049;DHT22;28673;44.412;11.918;2023-06-14T14:47:29;31.40;85.50
43049;DHT22;28673;44.412;11.918;2023-06-14T14:49:55;31.30;86.60
43049;DHT22;28673;44.412;11.918;2023-06-14T14:52:21;31.20;86.90
43049;DHT22;28673;44.412;11.918;2023-06-14T14:54:47;31.20;87.50
43049;DHT22;28673;44.412;11.918;2023-06-14T14:57:13;31.20;86.80
43049;DHT22;28673;44.412;11.918;2023-06-14T14:59:39;31.20;87.00
43049;DHT22;28673;44.412;11.918;2023-06-14T15:02:05;31.10;86.50
43049;DHT22;28673;44.412;11.918;2023-06-14T15:04:31;31.10;86.50
43049;DHT22;28673;44.412;11.918;2023-06-14T15:06:57;31.20;86.30
43049;DHT22;28673;44.412;11.918;2023-06-14T15:09:23;31.20;86.10
43049;DHT22;28673;44.412;11.918;2023-06-14T15:11:49;31.10;86.00
43049;DHT22;28673;44.412;11.918;2023-06-14T15:14:15;31.00;87.60
43049;DHT22;28673;44.412;11.918;2023-06-14T15:16:41;31.10;85.50
43049;DHT22;28673;44.412;11.918;2023-06-14T15:19:07;31.00;86.40
43049;DHT22;28673;44.412;11.918;2023-06-14T15:21:33;31.00;86.10
43049;DHT22;28673;44.412;11.918;2023-06-14T15:23:59;31.00;85.30
43049;DHT22;28673;44.412;11.918;2023-06-14T15:26:25;31.00;85.40
43049;DHT22;28673;44.412;11.918;2023-06-14T15:28:51;31.00;84.80
43049;DHT22;28673;44.412;11.918;2023-06-14T15:31:17;31.10;84.40
43049;DHT22;28673;44.412;11.918;2023-06-14T15:33:43;31.20;84.80